Time;durP1;ratioP1;P1;durP2;ratioP2;P2;SDS_P1;SDS_P2;PMS_P1;PMS_P2;Temp;Humidity;BMP_temperature;BMP_pressure;BME280_temperature;BME280_humidity;BME280_pressure;Samples;Min_cycle;Max_cycle;Signal;HPM_P1;HPM_P2
2024/01/29 00:00:16;;;;;;;;;58.25;40.25;;;;;-144.24;100.00;105292.38;5076183;28;46127;-70
2024/01/29 00:02:42;;;;;;;;;34.00;32.25;;;;;-144.24;100.00;105160.22;5076727;28;45534;-70
2024/01/29 00:05:07;;;;;;;;;39.00;37.25;;;;;-144.24;100.00;105052.50;5076218;28;45532;-70
2024/01/29 00:07:33;;;;;;;;;46.00;37.75;;;;;-144.24;100.00;104973.22;5076595;28;45362;-70
2024/01/29 00:09:58;;;;;;;;;48.75;40.75;;;;;-144.24;100.00;104904.13;5076049;28;46176;-70
2024/01/29 00:12:23;;;;;;;;;43.75;37.25;;;;;-144.24;100.00;104702.88;5075878;28;62875;-69
2024/01/29 00:14:49;;;;;;;;;38.50;37.50;;;;;-144.24;100.00;104711.03;5068680;28;45575;-72
2024/01/29 00:17:14;;;;;;;;;48.50;38.50;;;;;-144.24;100.00;104601.25;5075874;28;48126;-72
2024/01/29 00:19:39;;;;;;;;;43.25;37.00;;;;;-144.24;100.00;104601.25;5076112;28;46573;-70
2024/01/29 00:22:05;;;;;;;;;50.50;39.50;;;;;-144.24;100.00;104637.84;5076171;28;45419;-72
2024/01/29 00:24:30;;;;;;;;;41.75;38.00;;;;;-144.24;100.00;104570.78;5060710;28;46722;-72
2024/01/29 00:26:56;;;;;;;;;49.25;37.00;;;;;-144.24;100.00;104550.44;5079818;28;45499;-70
2024/01/29 00:29:21;;;;;;;;;49.75;39.75;;;;;-144.24;100.00;104513.88;5079402;28;46635;-70
2024/01/29 00:31:46;;;;;;;;;45.75;38.75;;;;;-144.24;100.00;104609.41;5079393;28;60414;-73
2024/01/29 00:34:12;;;;;;;;;44.00;40.75;;;;;-144.24;100.00;104519.97;5079221;28;45470;-70
2024/01/29 00:36:37;;;;;;;;;50.75;41.00;;;;;-144.24;100.00;104576.88;5080138;28;45432;-73
2024/01/29 00:39:06;;;;;;;;;42.25;36.00;;;;;-144.24;100.00;104550.44;5059936;28;65175;-70
2024/01/29 00:41:33;;;;;;;;;58.00;38.25;;;;;-144.24;100.00;104511.84;5070686;28;45505;-70
2024/01/29 00:43:58;;;;;;;;;44.25;38.75;;;;;-144.24;100.00;104615.50;5061386;28;45395;-70
2024/01/29 00:46:23;;;;;;;;;38.25;35.00;;;;;-144.24;100.00;104461.03;5078138;28;45474;-69
2024/01/29 00:48:49;;;;;;;;;53.25;40.75;;;;;-144.24;100.00;104440.72;5079522;28;47959;-75
2024/01/29 00:51:14;;;;;;;;;40.75;35.50;;;;;-144.24;100.00;104469.16;5062566;28;45469;-73
2024/01/29 00:53:40;;;;;;;;;47.50;38.00;;;;;-144.24;100.00;104509.81;5078904;28;48725;-72
2024/01/29 00:56:05;;;;;;;;;41.50;34.25;;;;;-144.24;100.00;104467.13;5077906;28;45494;-70
2024/01/29 00:58:31;;;;;;;;;47.75;36.25;;;;;-144.24;100.00;104412.25;5068700;28;46384;-75
2024/01/29 01:00:56;;;;;;;;;46.25;37.50;;;;;-144.24;100.00;104410.22;5074945;28;45279;-72
2024/01/29 01:03:22;;;;;;;;;46.00;36.75;;;;;-144.24;100.00;104270.00;5059522;28;45246;-71
2024/01/29 01:05:47;;;;;;;;;41.50;33.75;;;;;-144.24;100.00;104168.38;5061333;28;45312;-72
2024/01/29 01:08:13;;;;;;;;;46.00;38.50;;;;;-144.24;100.00;104294.38;5073898;28;45394;-71
2024/01/29 01:10:39;;;;;;;;;39.25;32.75;;;;;-144.24;100.00;104261.84;5070442;28;45465;-72
2024/01/29 01:13:04;;;;;;;;;48.25;39.50;;;;;-144.24;100.00;104200.88;5072083;28;48165;-72
2024/01/29 01:15:29;;;;;;;;;46.50;39.75;;;;;-144.24;100.00;104192.75;5059673;28;45467;-71
2024/01/29 01:17:56;;;;;;;;;36.25;33.00;;;;;-144.24;100.00;104050.50;5074432;28;54843;-72
2024/01/29 01:20:22;;;;;;;;;32.50;32.50;;;;;-144.24;100.00;104070.81;5077160;28;45416;-72
2024/01/29 01:22:48;;;;;;;;;41.75;33.50;;;;;-144.24;100.00;104030.19;5077368;28;45490;-71
2024/01/29 01:25:13;;;;;;;;;42.00;33.50;;;;;-144.24;100.00;103977.34;5078632;28;45391;-71
2024/01/29 01:27:38;;;;;;;;;39.00;34.00;;;;;-144.24;100.00;103814.78;5059451;28;45715;-74
2024/01/29 01:30:06;;;;;;;;;31.25;28.75;;;;;-144.24;100.00;103721.31;5072026;28;61754;-71
2024/01/29 01:32:32;;;;;;;;;38.50;33.50;;;;;-144.24;100.00;103544.53;5076082;28;45349;-73
2024/01/29 01:34:57;;;;;;;;;38.25;34.75;;;;;-144.24;100.00;103276.31;5058604;28;45451;-71
2024/01/29 01:37:22;;;;;;;;;39.00;31.50;;;;;-144.24;100.00;103337.28;5076267;28;45862;-72
2024/01/29 01:39:52;;;;;;;;;41.25;33.50;;;;;-144.24;100.00;103178.78;5075745;28;51781;-73
2024/01/29 01:42:21;;;;;;;;;34.75;30.50;;;;;-144.24;100.00;103081.28;5077018;28;45363;-72
2024/01/29 01:44:46;;;;;;;;;38.00;33.00;;;;;-144.24;100.00;102855.75;5077355;28;45331;-71
2024/01/29 01:47:12;;;;;;;;;40.00;34.50;;;;;-144.24;100.00;102628.22;5038001;28;48231;-72
2024/01/29 01:49:38;;;;;;;;;33.75;31.50;;;;;-144.24;100.00;102733.88;5060220;28;45294;-72
2024/01/29 01:52:04;;;;;;;;;37.50;30.00;;;;;-144.24;100.00;102611.97;5056480;28;45728;-71
2024/01/29 01:54:30;;;;;;;;;34.25;29.75;;;;;-144.24;100.00;102611.97;5060280;28;45463;-71
2024/01/29 01:56:57;;;;;;;;;48.25;36.00;;;;;-144.24;100.00;102567.28;5060112;28;46957;-71
2024/01/29 01:59:23;;;;;;;;;37.50;33.25;;;;;-144.24;100.00;102514.47;5076543;28;45447;-71
2024/01/29 02:01:49;;;;;;;;;33.75;31.50;;;;;-144.24;100.00;102441.34;5075887;28;63386;-73
2024/01/29 02:04:14;;;;;;;;;34.00;29.50;;;;;-144.24;100.00;102110.22;5078508;28;45339;-71
2024/01/29 02:06:40;;;;;;;;;34.50;30.25;;;;;-144.24;100.00;101775.09;5058471;28;46416;-71
2024/01/29 02:09:06;;;;;;;;;29.75;23.25;;;;;-144.24;100.00;101543.56;5062411;28;45388;-72
2024/01/29 02:11:31;;;;;;;;;35.75;30.50;;;;;-144.24;100.00;101175.97;5068923;28;45229;-70
2024/01/29 02:13:56;;;;;;;;;31.50;29.25;;;;;-144.24;100.00;100952.59;5070079;28;55374;-72
2024/01/29 02:16:22;;;;;;;;;38.25;30.00;;;;;-144.24;100.00;100816.56;5073186;28;49666;-70
2024/01/29 02:18:47;;;;;;;;;34.00;26.25;;;;;-144.24;100.00;100605.38;5059620;28;45324;-71
2024/01/29 02:21:13;;;;;;;;;32.00;31.50;;;;;-144.24;100.00;100406.41;5045823;28;45411;-71
2024/01/29 02:23:43;;;;;;;;;31.50;29.00;;;;;-144.24;100.00;100288.63;5075707;28;45462;-71
2024/01/29 02:26:09;;;;;;;;;41.25;31.25;;;;;-144.24;100.00;100057.19;5074817;28;46913;-71
2024/01/29 02:28:34;;;;;;;;;38.00;29.50;;;;;-144.24;100.00;100093.75;5058801;28;45342;-71
2024/01/29 02:30:59;;;;;;;;;30.75;27.00;;;;;-144.24;100.00;99945.53;5076873;28;60359;-71
2024/01/29 02:33:25;;;;;;;;;29.00;28.00;;;;;-144.24;100.00;99904.94;5047443;28;45415;-71
2024/01/29 02:35:50;;;;;;;;;33.75;26.75;;;;;-144.24;100.00;99945.53;5075592;28;47845;-71
2024/01/29 02:38:16;;;;;;;;;29.75;24.50;;;;;-144.24;100.00;100038.94;5059508;28;46459;-71
2024/01/29 02:40:41;;;;;;;;;31.75;28.00;;;;;-144.24;100.00;99929.28;5077013;28;46795;-71
2024/01/29 02:43:06;;;;;;;;;33.00;25.50;;;;;-144.24;100.00;99971.94;5075055;28;45458;-71
2024/01/29 02:45:32;;;;;;;;;29.00;20.75;;;;;-144.24;100.00;100085.63;5037755;28;56242;-70
2024/01/29 02:47:57;;;;;;;;;27.75;23.75;;;;;-144.24;100.00;100091.72;5073204;28;58416;-72
2024/01/29 02:50:22;;;;;;;;;33.50;25.50;;;;;-144.24;100.00;100114.03;5074241;28;51383;-71
2024/01/29 02:52:49;;;;;;;;;17.75;14.75;;;;;-144.24;100.00;100014.56;5056191;28;45438;-71
2024/01/29 02:55:14;;;;;;;;;30.50;25.50;;;;;-144.24;100.00;100095.78;5049591;28;45785;-71
2024/01/29 02:57:39;;;;;;;;;26.25;23.25;;;;;-144.24;100.00;100191.19;5069100;28;54988;-71
2024/01/29 03:00:06;;;;;;;;;25.75;24.00;;;;;-144.24;100.00;99988.16;5072755;28;45815;-72
2024/01/29 03:02:31;;;;;;;;;27.75;24.75;;;;;-144.24;100.00;100109.97;5052319;28;45396;-72
2024/01/29 03:04:56;;;;;;;;;25.50;22.75;;;;;-144.24;100.00;100124.19;5071084;28;45765;-74
2024/01/29 03:07:22;;;;;;;;;24.00;23.50;;;;;-144.24;100.00;100183.06;5073645;28;56985;-71
2024/01/29 03:09:47;;;;;;;;;27.25;22.25;;;;;-144.24;100.00;99963.81;5072045;28;45449;-71
2024/01/29 03:12:13;;;;;;;;;24.25;20.50;;;;;-144.24;100.00;99921.19;5077415;28;45598;-71
2024/01/29 03:14:38;;;;;;;;;23.75;18.75;;;;;-144.24;100.00;99892.75;5075039;28;45879;-71
2024/01/29 03:17:04;;;;;;;;;27.75;23.00;;;;;-144.24;100.00;99864.34;5058326;28;45495;-71
2024/01/29 03:19:29;;;;;;;;;21.25;20.25;;;;;-144.24;100.00;99854.19;5057494;28;47532;-71
2024/01/29 03:21:55;;;;;;;;;22.25;21.25;;;;;-144.24;100.00;99643.06;5057911;28;45423;-71
2024/01/29 03:24:20;;;;;;;;;21.50;21.50;;;;;-144.24;100.00;99697.88;5075449;28;60579;-73
2024/01/29 03:26:45;;;;;;;;;20.75;19.50;;;;;-144.24;100.00;99537.50;5070343;28;45405;-71
2024/01/29 03:29:11;;;;;;;;;15.00;15.00;;;;;-144.24;100.00;99417.75;5076191;28;55379;-71
2024/01/29 03:31:36;;;;;;;;;18.00;15.50;;;;;-144.24;100.00;99149.81;5055759;28;46115;-71
2024/01/29 03:34:02;;;;;;;;;17.25;15.50;;;;;-144.24;100.00;98975.25;5046146;28;60092;-71
2024/01/29 03:36:27;;;;;;;;;27.25;19.75;;;;;-144.24;100.00;98900.16;5046141;28;60574;-71
2024/01/29 03:38:52;;;;;;;;;30.00;22.75;;;;;-144.24;100.00;98660.66;5055887;28;45474;-72
2024/01/29 03:41:18;;;;;;;;;25.75;24.00;;;;;-144.24;100.00;98626.16;5054934;28;45537;-72
2024/01/29 03:43:43;;;;;;;;;27.00;25.50;;;;;-144.24;100.00;98398.88;5046982;28;46634;-72
2024/01/29 03:46:09;;;;;;;;;29.00;26.00;;;;;-144.24;100.00;98271.03;5053239;28;45449;-71
2024/01/29 03:48:34;;;;;;;;;30.25;25.25;;;;;-144.24;100.00;98295.38;5054684;28;45538;-72
2024/01/29 03:50:59;;;;;;;;;29.00;25.75;;;;;-144.24;100.00;98193.91;5051646;28;60325;-70
2024/01/29 03:53:25;;;;;;;;;32.50;27.25;;;;;-144.24;100.00;98157.38;5050855;28;45464;-74
2024/01/29 03:55:52;;;;;;;;;30.25;29.75;;;;;-144.24;100.00;98141.16;5055254;28;45436;-70
2024/01/29 03:58:17;;;;;;;;;38.25;35.00;;;;;-144.24;100.00;98062.00;5054505;28;45350;-72
2024/01/29 04:00:43;;;;;;;;;41.00;34.00;;;;;-144.24;100.00;97897.66;5041090;28;47790;-73
2024/01/29 04:03:08;;;;;;;;;39.50;34.25;;;;;-144.24;100.00;98070.13;5045499;28;45589;-70
2024/01/29 04:05:33;;;;;;;;;43.25;32.00;;;;;-144.24;100.00;97913.88;5055317;28;46045;-71
2024/01/29 04:07:59;;;;;;;;;33.50;30.50;;;;;-144.24;100.00;97940.25;5055264;28;55866;-71
2024/01/29 04:10:24;;;;;;;;;44.50;35.00;;;;;-144.24;100.00;97806.34;5042793;28;45370;-73
2024/01/29 04:12:50;;;;;;;;;13.25;8.50;;;;;-144.24;100.00;97859.09;5044886;28;52395;-71
2024/01/29 04:15:16;;;;;;;;;35.50;28.75;;;;;-144.24;100.00;97869.25;5054890;28;45470;-74
2024/01/29 04:17:41;;;;;;;;;34.00;29.00;;;;;-144.24;100.00;97765.75;5055270;28;45291;-71
2024/01/29 04:20:07;;;;;;;;;31.25;30.25;;;;;-144.24;100.00;97715.03;5044358;28;52654;-71
2024/01/29 04:22:33;;;;;;;;;30.75;30.75;;;;;-144.24;100.00;97727.22;5054085;28;46752;-73
2024/01/29 04:24:59;;;;;;;;;37.25;32.00;;;;;-144.24;100.00;97745.47;5055823;28;45402;-71
2024/01/29 04:27:24;;;;;;;;;32.00;28.00;;;;;-144.24;100.00;97666.34;5049052;28;45311;-71
2024/01/29 04:29:50;;;;;;;;;24.00;22.00;;;;;-144.24;100.00;97512.13;5053172;28;45216;-72
2024/01/29 04:32:15;;;;;;;;;29.75;26.50;;;;;-144.24;100.00;97682.56;5052613;28;66039;-71
2024/01/29 04:34:40;;;;;;;;;26.50;22.00;;;;;-144.24;100.00;97445.19;5064155;28;45769;-71
2024/01/29 04:37:06;;;;;;;;;27.25;27.25;;;;;-144.24;100.00;97426.94;5071844;28;54959;-71
2024/01/29 04:39:31;;;;;;;;;27.25;25.75;;;;;-144.24;100.00;97404.59;5052197;28;45478;-72
2024/01/29 04:41:56;;;;;;;;;20.75;19.50;;;;;-144.24;100.00;97394.47;5055074;28;47576;-71
2024/01/29 04:44:22;;;;;;;;;29.50;25.25;;;;;-144.24;100.00;97165.22;5071891;28;59665;-73
2024/01/29 04:46:48;;;;;;;;;24.75;22.75;;;;;-144.24;100.00;96982.63;5064536;28;45354;-71
2024/01/29 04:49:13;;;;;;;;;24.25;22.75;;;;;-144.24;100.00;97029.28;5073735;28;45533;-71
2024/01/29 04:51:39;;;;;;;;;27.00;21.50;;;;;-144.24;100.00;97094.22;5073172;28;64196;-72
2024/01/29 04:54:05;;;;;;;;;37.75;26.25;;;;;-144.24;100.00;96986.69;5066335;28;45533;-71
2024/01/29 04:56:30;;;;;;;;;25.25;21.25;;;;;-144.24;100.00;97000.88;5048040;28;45554;-71
2024/01/29 04:58:55;;;;;;;;;28.25;26.75;;;;;-144.24;100.00;96952.19;5074404;28;54755;-74
2024/01/29 05:01:21;;;;;;;;;31.25;24.25;;;;;-144.24;100.00;96954.22;5074307;28;54524;-71
2024/01/29 05:03:47;;;;;;;;;23.00;20.00;;;;;-144.24;100.00;96773.69;5070360;28;45522;-71
2024/01/29 05:06:13;;;;;;;;;25.50;23.00;;;;;-144.24;100.00;96787.88;5072081;28;45446;-72
2024/01/29 05:08:38;;;;;;;;;33.75;23.50;;;;;-144.24;100.00;96729.06;5073634;28;47026;-71
2024/01/29 05:11:04;;;;;;;;;27.00;23.75;;;;;-144.24;100.00;96688.50;5045792;28;45548;-71
2024/01/29 05:13:29;;;;;;;;;23.00;20.00;;;;;-144.24;100.00;96576.91;5077949;27;45423;-71
2024/01/29 05:15:54;;;;;;;;;21.00;20.00;;;;;-144.24;100.00;96615.47;5077154;28;45406;-71
2024/01/29 05:18:20;;;;;;;;;29.00;24.50;;;;;-144.24;100.00;96641.84;5058252;28;45689;-71
2024/01/29 05:20:45;;;;;;;;;33.25;24.00;;;;;-144.24;100.00;96611.41;5061876;28;45412;-73
2024/01/29 05:23:12;;;;;;;;;29.75;27.75;;;;;-144.24;100.00;96633.72;5078379;28;52770;-71
2024/01/29 05:25:37;;;;;;;;;26.25;24.25;;;;;-144.24;100.00;96629.66;5060729;28;45533;-71
2024/01/29 05:28:03;;;;;;;;;36.25;26.25;;;;;-144.24;100.00;96534.31;5079201;28;45321;-71
2024/01/29 05:30:29;;;;;;;;;26.25;24.50;;;;;-144.24;100.00;96651.97;5054832;28;46113;-72
2024/01/29 05:32:54;;;;;;;;;28.00;24.50;;;;;-144.24;100.00;96727.03;5078143;28;45338;-73
2024/01/29 05:35:19;;;;;;;;;28.25;23.75;;;;;-144.24;100.00;96660.09;5059454;28;45550;-73
2024/01/29 05:37:45;;;;;;;;;21.75;18.25;;;;;-144.24;100.00;96787.88;5078273;28;45439;-71
2024/01/29 05:40:13;;;;;;;;;26.75;23.75;;;;;-144.24;100.00;96800.06;5071015;28;70742;-72
2024/01/29 05:42:38;;;;;;;;;20.00;20.00;;;;;-144.24;100.00;96873.09;5070138;28;45478;-71
2024/01/29 05:45:04;;;;;;;;;28.25;24.75;;;;;-144.24;100.00;96783.81;5071733;28;45476;-71
2024/01/29 05:47:30;;;;;;;;;26.75;23.00;;;;;-144.24;100.00;96623.56;5077660;28;45455;-71
2024/01/29 05:49:55;;;;;;;;;25.00;20.25;;;;;-144.24;100.00;96710.81;5071515;28;45387;-71
2024/01/29 05:52:21;;;;;;;;;24.00;23.75;;;;;-144.24;100.00;96745.28;5058719;28;45521;-71
2024/01/29 05:54:46;;;;;;;;;30.50;24.25;;;;;-144.24;100.00;96684.44;5075114;28;45346;-72
2024/01/29 05:57:12;;;;;;;;;25.00;23.50;;;;;-144.24;100.00;96789.91;5074299;28;45649;-73
2024/01/29 05:59:41;;;;;;;;;25.25;24.50;;;;;-144.24;100.00;96660.09;5059642;28;45756;-72
2024/01/29 06:02:07;;;;;;;;;27.50;23.75;;;;;-144.24;100.00;96972.50;5075935;28;45335;-71
2024/01/29 06:04:32;;;;;;;;;27.25;25.25;;;;;-144.24;100.00;96785.84;5056068;28;45438;-71
2024/01/29 06:06:57;;;;;;;;;22.25;20.00;;;;;-144.24;100.00;96769.63;5077090;28;45315;-71
2024/01/29 06:09:23;;;;;;;;;25.75;20.00;;;;;-144.24;100.00;96812.22;5074421;28;46499;-73
2024/01/29 06:11:51;;;;;;;;;21.75;19.00;;;;;-144.24;100.00;96702.69;5074128;28;45402;-71
2024/01/29 06:14:17;;;;;;;;;20.00;19.50;;;;;-144.24;100.00;96647.91;5027095;28;45499;-71
2024/01/29 06:16:46;;;;;;;;;23.50;20.00;;;;;-144.24;100.00;96680.38;5057269;28;45568;-71
2024/01/29 06:19:17;;;;;;;;;28.75;25.50;;;;;-144.24;100.00;96595.19;5071279;28;45911;-71
2024/01/29 06:21:45;;;;;;;;;22.25;22.00;;;;;-144.24;100.00;96499.84;5040100;28;45474;-71
2024/01/29 06:24:11;;;;;;;;;24.50;23.00;;;;;-144.24;100.00;96447.09;5057311;28;45535;-71
2024/01/29 06:26:37;;;;;;;;;23.00;20.00;;;;;-144.24;100.00;96349.75;5076475;28;55961;-73
2024/01/29 06:29:03;;;;;;;;;22.75;21.75;;;;;-144.24;100.00;96309.19;5077653;28;46224;-72
2024/01/29 06:31:29;;;;;;;;;21.00;18.50;;;;;-144.24;100.00;96449.13;5057370;28;45490;-71
2024/01/29 06:33:54;;;;;;;;;27.75;20.50;;;;;-144.24;100.00;96276.72;5188824;22;45615;-75
2024/01/29 06:36:20;;;;;;;;;21.25;17.00;;;;;-144.24;100.00;96108.38;5075140;28;45298;-71
2024/01/29 06:38:46;;;;;;;;;26.50;23.75;;;;;-144.24;100.00;96053.63;5066718;28;45931;-71
2024/01/29 06:41:25;;;;;;;;;20.00;16.00;;;;;-144.24;100.00;96015.09;5067126;28;45393;-72
2024/01/29 06:43:51;;;;;;;;;24.25;21.75;;;;;-144.24;100.00;95938.00;5067263;28;45482;-70
2024/01/29 06:46:17;;;;;;;;;30.00;23.00;;;;;-144.24;100.00;95804.16;5070593;28;45517;-71
2024/01/29 06:48:42;;;;;;;;;19.75;17.75;;;;;-144.24;100.00;95921.78;5076971;28;46570;-71
2024/01/29 06:51:07;;;;;;;;;23.75;20.50;;;;;-144.24;100.00;95897.44;5074909;27;45438;-70
2024/01/29 06:53:34;;;;;;;;;26.50;21.75;;;;;-144.24;100.00;95712.91;5069468;28;46649;-71
2024/01/29 06:56:02;;;;;;;;;25.00;19.00;;;;;-144.24;100.00;95585.13;5075416;28;45531;-71
2024/01/29 06:58:28;;;;;;;;;22.75;20.50;;;;;-144.24;100.00;95510.09;5073819;28;45611;-71
2024/01/29 07:00:54;;;;;;;;;19.00;17.75;;;;;-144.24;100.00;95353.97;5046883;28;45638;-73
2024/01/29 07:03:20;;;;;;;;;22.50;18.75;;;;;-144.24;100.00;95299.22;5063159;28;45621;-72
2024/01/29 07:05:48;;;;;;;;;30.00;23.50;;;;;-144.24;100.00;95157.25;5073986;28;45539;-72
2024/01/29 07:08:15;;;;;;;;;22.00;20.00;;;;;-144.24;100.00;94918.00;5067377;28;46375;-71
2024/01/29 07:10:41;;;;;;;;;27.75;21.75;;;;;-144.24;100.00;94845.00;5067720;28;45527;-72
2024/01/29 07:13:06;;;;;;;;;26.00;21.25;;;;;-144.24;100.00;94636.16;5067583;28;45536;-71
2024/01/29 07:15:32;;;;;;;;;25.50;19.75;;;;;-144.24;100.00;94536.81;5064173;28;48869;-71
2024/01/29 07:17:57;;;;;;;;;24.75;21.00;;;;;-144.24;100.00;94151.63;5073132;28;46609;-71
2024/01/29 07:20:23;;;;;;;;;21.25;17.25;;;;;-144.24;100.00;93926.63;5071459;28;46143;-71
2024/01/29 07:22:48;;;;;;;;;21.75;19.00;;;;;-144.24;100.00;93456.34;5071852;28;45481;-72
2024/01/29 07:25:13;;;;;;;;;27.50;20.25;;;;;-144.24;100.00;93338.78;5066496;28;45375;-70
2024/01/29 07:27:39;;;;;;;;;20.00;19.00;;;;;-144.24;100.00;92894.94;5060600;28;45523;-72
2024/01/29 07:30:05;;;;;;;;;24.00;20.50;;;;;-144.24;100.00;92749.03;5054042;27;65415;-71
2024/01/29 07:32:33;;;;;;;;;23.75;17.25;;;;;-144.24;100.00;92412.66;5065198;28;45523;-73
2024/01/29 07:35:00;;;;;;;;;25.50;20.50;;;;;-144.24;100.00;92449.13;5066492;28;46009;-72
2024/01/29 07:37:28;;;;;;;;;21.75;18.50;;;;;-144.24;100.00;92201.91;5067126;28;46018;-70
2024/01/29 07:39:54;;;;;;;;;16.50;16.00;;;;;-144.24;100.00;92096.53;5057095;28;45937;-69
2024/01/29 07:42:19;;;;;;;;;19.00;16.25;;;;;-144.24;100.00;91883.81;5063728;28;45409;-69
2024/01/29 07:44:44;;;;;;;;;2.00;0.75;;;;;-144.24;100.00;91800.72;5055507;28;45598;-70
2024/01/29 07:47:10;;;;;;;;;18.75;15.25;;;;;-144.24;100.00;91770.34;5062264;28;46115;-70
2024/01/29 07:49:36;;;;;;;;;21.00;17.00;;;;;-144.24;100.00;91583.94;5064358;28;45577;-71
2024/01/29 07:52:01;;;;;;;;;23.75;20.75;;;;;-144.24;100.00;91960.78;5057772;28;45457;-70
2024/01/29 07:54:27;;;;;;;;;15.75;13.50;;;;;-144.24;100.00;91926.34;5062604;28;45535;-70
2024/01/29 07:56:52;;;;;;;;;22.00;18.50;;;;;-144.24;100.00;91721.72;5055004;27;56348;-70
2024/01/29 07:59:17;;;;;;;;;22.00;18.75;;;;;-144.24;100.00;91739.94;5053778;28;45612;-69
2024/01/29 08:01:44;;;;;;;;;19.00;17.50;;;;;-144.24;100.00;91531.28;5060144;28;56194;-71
2024/01/29 08:04:10;;;;;;;;;24.75;21.00;;;;;-144.24;100.00;91361.09;5056901;28;45575;-68
2024/01/29 08:06:35;;;;;;;;;23.25;19.75;;;;;-144.24;100.00;91142.31;5068060;28;46015;-71
2024/01/29 08:09:02;;;;;;;;;23.00;21.25;;;;;-144.24;100.00;90718.97;5066591;28;59160;-70
2024/01/29 08:11:28;;;;;;;;;20.50;18.25;;;;;-144.24;100.00;90372.63;5063187;28;47312;-70
2024/01/29 08:13:54;;;;;;;;;23.25;18.25;;;;;-144.24;100.00;89931.13;5062914;28;52124;-70
2024/01/29 08:16:19;;;;;;;;;22.00;17.50;;;;;-144.24;100.00;89532.19;5064415;27;46776;-70
2024/01/29 08:18:45;;;;;;;;;22.25;17.00;;;;;-144.24;100.00;89032.06;5067676;27;45533;-70
2024/01/29 08:21:10;;;;;;;;;20.25;17.25;;;;;-144.24;100.00;88736.50;5067131;28;45477;-70
2024/01/29 08:23:36;;;;;;;;;21.25;17.50;;;;;-144.24;100.00;88325.53;5065247;28;45455;-69
2024/01/29 08:26:01;;;;;;;;;19.75;16.75;;;;;-144.24;100.00;88113.00;5061602;28;47307;-69
2024/01/29 08:28:26;;;;;;;;;19.75;18.50;;;;;-144.24;100.00;87930.81;5061267;27;50365;-70
2024/01/29 08:30:54;;;;;;;;;21.50;19.50;;;;;-144.24;100.00;87609.00;5063982;28;46577;-70
2024/01/29 08:33:19;;;;;;;;;21.25;20.50;;;;;-144.24;100.00;87426.84;5067207;27;45434;-71
2024/01/29 08:35:44;;;;;;;;;17.75;16.75;;;;;-144.24;100.00;87333.75;5084434;27;58333;-69
2024/01/29 08:38:10;;;;;;;;;22.25;17.00;;;;;-144.24;100.00;87175.91;5081398;27;62927;-70
2024/01/29 08:40:35;;;;;;;;;25.25;19.00;;;;;-144.24;100.00;86910.78;5084451;27;63615;-70
2024/01/29 08:43:01;;;;;;;;;22.00;20.50;;;;;-144.24;100.00;86797.47;5082304;27;49972;-69
2024/01/29 08:45:26;;;;;;;;;19.75;19.50;;;;;-144.24;100.00;86763.06;5070050;27;48477;-70
2024/01/29 08:47:51;;;;;;;;;30.00;27.50;;;;;-144.24;100.00;86607.28;5082678;27;45514;-70
2024/01/29 08:50:17;;;;;;;;;22.75;18.25;;;;;-144.24;100.00;86506.09;5090212;27;45706;-70
2024/01/29 08:52:42;;;;;;;;;23.75;22.50;;;;;-144.24;100.00;86350.31;5091925;27;45444;-70
2024/01/29 08:55:08;;;;;;;;;26.75;22.75;;;;;-144.24;100.00;86121.66;5088290;27;48465;-70
2024/01/29 08:57:33;;;;;;;;;21.50;20.00;;;;;-144.24;100.00;85802.03;5071387;27;45631;-71
2024/01/29 08:59:59;;;;;;;;;29.00;21.00;;;;;-144.24;100.00;85785.84;5084194;27;45520;-70
2024/01/29 09:02:27;;;;;;;;;26.50;25.00;;;;;-144.24;100.00;85686.72;5089789;27;56088;-70
2024/01/29 09:04:54;;;;;;;;;25.75;24.50;;;;;-144.24;100.00;85565.34;5088834;27;45823;-69
2024/01/29 09:07:20;;;;;;;;;23.25;21.00;;;;;-144.24;100.00;85522.84;5082833;27;51367;-71
2024/01/29 09:09:46;;;;;;;;;20.75;17.00;;;;;-144.24;100.00;85636.13;5088095;27;45840;-70
2024/01/29 09:12:12;;;;;;;;;32.50;28.25;;;;;-144.24;100.00;85387.31;5087477;27;45865;-69
2024/01/29 09:14:37;;;;;;;;;35.75;30.25;;;;;-144.24;100.00;85419.69;5069579;27;45998;-69
2024/01/29 09:17:04;;;;;;;;;27.75;26.00;;;;;-144.24;100.00;85405.53;5084759;27;45579;-69
2024/01/29 09:19:29;;;;;;;;;21.25;21.25;;;;;-144.24;100.00;85383.28;5082580;27;45532;-69
2024/01/29 09:21:54;;;;;;;;;29.50;23.25;;;;;-144.24;100.00;85298.31;5069103;27;45659;-70
2024/01/29 09:24:20;;;;;;;;;15.50;14.00;;;;;-144.24;100.00;85158.75;5053662;27;61583;-69
2024/01/29 09:26:45;;;;;;;;;23.75;23.50;;;;;-144.24;100.00;85122.34;5089331;27;45482;-72
2024/01/29 09:29:10;;;;;;;;;22.50;20.00;;;;;-144.24;100.00;85233.59;5087271;27;45611;-70
2024/01/29 09:31:36;;;;;;;;;22.75;19.00;;;;;-144.24;100.00;85338.78;5091499;27;45786;-70
2024/01/29 09:34:03;;;;;;;;;22.75;20.25;;;;;-144.24;100.00;85241.69;5091206;27;54155;-70
2024/01/29 09:36:28;;;;;;;;;20.75;20.75;;;;;-144.24;100.00;85092.00;5088597;27;45456;-71
2024/01/29 09:38:53;;;;;;;;;21.25;17.75;;;;;-144.24;100.00;85150.66;5073791;27;45497;-70
2024/01/29 09:41:19;;;;;;;;;19.75;18.75;;;;;-144.24;100.00;85211.34;5084502;27;54195;-72
2024/01/29 09:43:46;;;;;;;;;20.00;17.25;;;;;-144.24;100.00;85267.97;5090530;27;47793;-70
2024/01/29 09:46:14;;;;;;;;;19.00;19.00;;;;;-144.24;100.00;85217.41;5080951;27;45564;-71
2024/01/29 09:48:41;;;;;;;;;21.75;19.75;;;;;-144.24;100.00;85272.03;5075457;27;45520;-72
2024/01/29 09:51:07;;;;;;;;;18.75;18.25;;;;;-144.24;100.00;85259.88;5094511;27;45705;-71
2024/01/29 09:53:34;;;;;;;;;17.50;16.25;;;;;-144.24;100.00;85215.38;5083892;27;46070;-71
2024/01/29 09:55:59;;;;;;;;;10.25;9.25;;;;;-144.24;100.00;84928.16;5071452;27;45472;-70
2024/01/29 09:58:25;;;;;;;;;16.75;15.50;;;;;-144.24;100.00;85124.38;5075180;27;57656;-70
2024/01/29 10:00:51;;;;;;;;;19.50;16.00;;;;;-144.24;100.00;84948.41;5089916;27;45641;-70
2024/01/29 10:03:29;;;;;;;;;18.50;15.50;;;;;-144.24;100.00;84887.72;5065635;27;46105;-70
2024/01/29 10:05:56;;;;;;;;;16.50;15.00;;;;;-144.24;100.00;85041.44;5092433;27;45569;-70
2024/01/29 10:08:23;;;;;;;;;19.00;15.00;;;;;-144.24;100.00;85039.41;5066959;27;45612;-70
2024/01/29 10:10:48;;;;;;;;;15.75;15.75;;;;;-144.24;100.00;85057.63;5076094;27;45558;-70
2024/01/29 10:13:14;;;;;;;;;20.00;17.00;;;;;-144.24;100.00;84976.72;5090663;27;55961;-70
2024/01/29 10:15:42;;;;;;;;;17.75;16.75;;;;;-144.24;100.00;85013.13;5090738;27;56084;-71
2024/01/29 10:18:11;;;;;;;;;18.75;15.50;;;;;-144.24;100.00;85015.13;5067470;27;45597;-73
2024/01/29 10:20:36;;;;;;;;;18.00;16.75;;;;;-144.24;100.00;85241.69;5094684;27;45647;-71
2024/01/29 10:23:02;;;;;;;;;16.00;14.25;;;;;-144.24;100.00;85213.38;5070054;27;48068;-73
2024/01/29 10:25:29;;;;;;;;;17.00;14.75;;;;;-144.24;100.00;85318.53;5093140;27;47374;-71
2024/01/29 10:28:12;;;;;;;;;21.25;15.00;;;;;-144.24;100.00;85195.16;5069541;27;45611;-72
2024/01/29 10:30:41;;;;;;;;;19.00;14.00;;;;;-144.24;100.00;85286.19;5085934;27;45416;-72
2024/01/29 10:33:07;;;;;;;;;12.75;8.00;;;;;-144.24;100.00;85494.53;5087741;27;46143;-73
2024/01/29 10:35:33;;;;;;;;;16.75;14.50;;;;;-144.24;100.00;85439.91;5093312;27;45816;-70
2024/01/29 10:38:03;;;;;;;;;16.00;14.25;;;;;-144.24;100.00;85658.38;5088726;27;45401;-71
2024/01/29 10:40:30;;;;;;;;;12.00;11.25;;;;;-144.24;100.00;85915.31;5087228;27;46023;-72
2024/01/29 10:42:58;;;;;;;;;12.75;11.25;;;;;-144.24;100.00;85717.06;5092880;27;45655;-71
2024/01/29 10:45:24;;;;;;;;;15.00;14.50;;;;;-144.24;100.00;85830.34;5086679;27;45661;-71